East Weymouth, Massachusetts
Current Conditions -  °F | °C
As of 3:54 AM on Monday 20 Oct 2014 (Local Time) from KBOS Reporting Station
Scattered Clouds Scattered Clouds  
Wind Chill: 33°   Ceiling: Unl
Heat Index: 40°   Visibility: 10mi
Dew Point: 25°   Wind: 12mph
Humidity: 55%   Direction: 300°WNW
Pressure: 30"   Gusts: NA
Location:  42.21°N, 70.9313°W
Report Text: KBOS 200754Z 30010KT 10SM SCT220 04/M04 A3000 RMK AO2 SLP157 T00441039
Loading
Personal Weather Stations






























Interactive Weather Map
Tropical Storm Tracking
New forecast layout! Learn more

10-Day Weather Forecast

Advertisements
Track Severe Weather on mobile